createdAt,value
2023-03-27T00:01:42.817Z,87.85
2023-03-27T00:04:09.319Z,87.80
2023-03-27T00:06:35.911Z,87.61
2023-03-27T00:09:02.259Z,87.60
2023-03-27T00:11:28.823Z,87.44
2023-03-27T00:13:55.310Z,87.45
2023-03-27T00:16:21.895Z,87.51
2023-03-27T00:18:48.335Z,87.74
2023-03-27T00:21:14.684Z,87.61
2023-03-27T00:23:41.039Z,87.89
2023-03-27T00:26:07.413Z,87.77
2023-03-27T00:28:34.021Z,88.03
2023-03-27T00:31:00.492Z,88.18
2023-03-27T00:33:26.976Z,87.89
2023-03-27T00:35:53.415Z,88.09
2023-03-27T00:38:19.823Z,87.89
2023-03-27T00:40:46.177Z,88.00
2023-03-27T00:43:12.535Z,87.53
2023-03-27T00:45:38.871Z,87.90
2023-03-27T00:48:05.206Z,87.93
2023-03-27T00:50:31.651Z,88.08
2023-03-27T00:52:58.001Z,88.02
2023-03-27T00:55:24.337Z,87.96
2023-03-27T00:57:50.677Z,87.77
2023-03-27T01:00:17.074Z,88.38
2023-03-27T01:02:43.512Z,88.10
2023-03-27T01:05:09.888Z,88.17
2023-03-27T01:07:36.219Z,87.91
2023-03-27T01:10:02.784Z,88.10
2023-03-27T01:12:29.112Z,88.20
2023-03-27T01:14:55.464Z,87.98
2023-03-27T01:17:21.824Z,88.28
2023-03-27T01:19:48.198Z,88.21
2023-03-27T01:22:14.539Z,88.00
2023-03-27T01:24:40.864Z,87.95
2023-03-27T01:27:07.194Z,88.13
2023-03-27T01:29:33.527Z,88.16
2023-03-27T01:31:59.856Z,88.15
2023-03-27T01:34:26.201Z,88.10
2023-03-27T01:36:52.552Z,88.65
2023-03-27T01:39:18.884Z,88.33
2023-03-27T01:41:45.217Z,88.50
2023-03-27T01:44:11.551Z,88.45
2023-03-27T01:46:37.914Z,88.40
2023-03-27T01:49:04.291Z,88.18
2023-03-27T01:51:30.855Z,88.42
2023-03-27T01:53:57.428Z,88.62
2023-03-27T01:56:23.775Z,88.58
2023-03-27T01:58:50.117Z,88.31
2023-03-27T02:01:16.706Z,88.06
2023-03-27T02:03:43.067Z,88.19
2023-03-27T02:06:09.411Z,88.54
2023-03-27T02:08:35.752Z,88.48
2023-03-27T02:11:02.086Z,88.52
2023-03-27T02:13:28.444Z,88.49
2023-03-27T02:15:54.808Z,88.31
2023-03-27T02:18:21.164Z,88.33
2023-03-27T02:20:47.500Z,88.23
2023-03-27T02:23:14.051Z,88.31
2023-03-27T02:25:40.396Z,88.43
2023-03-27T02:28:06.732Z,88.60
2023-03-27T02:30:33.073Z,88.49
2023-03-27T02:32:59.437Z,88.33
2023-03-27T02:35:25.835Z,88.45
2023-03-27T02:37:52.181Z,88.38
2023-03-27T02:40:18.535Z,88.24
2023-03-27T02:42:45.810Z,88.50
2023-03-27T02:45:12.139Z,88.43
2023-03-27T02:47:38.575Z,88.60
2023-03-27T02:50:04.961Z,88.69
2023-03-27T02:52:31.314Z,88.69
2023-03-27T02:54:57.643Z,88.85
2023-03-27T02:57:25.110Z,88.63
2023-03-27T02:59:51.655Z,88.69
2023-03-27T03:02:18.106Z,88.82
2023-03-27T03:04:44.488Z,88.98
2023-03-27T03:07:10.825Z,88.73
2023-03-27T03:09:40.311Z,88.69
2023-03-27T03:12:07.557Z,88.78
2023-03-27T03:14:34.102Z,88.85
2023-03-27T03:17:00.499Z,88.67
2023-03-27T03:19:26.860Z,88.63
2023-03-27T03:21:53.207Z,88.64
2023-03-27T03:24:19.541Z,88.54
2023-03-27T03:26:45.891Z,88.51
2023-03-27T03:29:13.034Z,88.31
2023-03-27T03:31:39.392Z,88.17
2023-03-27T03:34:05.732Z,88.28
2023-03-27T03:36:32.060Z,88.66
2023-03-27T03:38:58.410Z,88.48
2023-03-27T03:41:24.737Z,87.87
2023-03-27T03:43:51.078Z,88.07
2023-03-27T03:46:17.436Z,88.10
2023-03-27T03:48:43.766Z,88.10
2023-03-27T03:51:10.118Z,88.14
2023-03-27T03:53:36.461Z,88.12
2023-03-27T03:56:02.811Z,88.14
2023-03-27T03:58:34.432Z,88.14
2023-03-27T04:01:01.537Z,88.23
2023-03-27T04:03:27.971Z,87.98
2023-03-27T04:05:54.383Z,87.72
2023-03-27T04:08:20.730Z,86.22
2023-03-27T04:10:47.064Z,85.34
2023-03-27T04:13:13.608Z,85.63
2023-03-27T04:15:39.989Z,86.13
2023-03-27T04:18:06.666Z,86.38
2023-03-27T04:20:33.051Z,85.50
2023-03-27T04:22:59.384Z,85.18
2023-03-27T04:25:25.943Z,85.37
2023-03-27T04:27:52.315Z,84.87
2023-03-27T04:30:18.669Z,84.91
2023-03-27T04:32:45.304Z,84.56
2023-03-27T04:35:11.678Z,84.85
2023-03-27T04:37:38.212Z,85.26
2023-03-27T04:40:04.550Z,85.72
2023-03-27T04:42:30.905Z,85.06
2023-03-27T04:44:57.243Z,84.35
2023-03-27T04:47:23.878Z,85.09
2023-03-27T04:49:50.267Z,85.51
2023-03-27T04:52:16.645Z,86.02
2023-03-27T04:54:43.003Z,86.65
2023-03-27T04:57:09.451Z,86.02
2023-03-27T04:59:35.813Z,85.24
2023-03-27T05:02:02.154Z,85.01
2023-03-27T05:04:28.493Z,84.89
2023-03-27T05:06:54.829Z,85.22
2023-03-27T05:09:21.395Z,86.22
2023-03-27T05:11:47.740Z,85.42
2023-03-27T05:14:14.574Z,84.58
2023-03-27T05:16:40.930Z,84.42
2023-03-27T05:19:07.660Z,84.18
2023-03-27T05:21:34.222Z,85.80
2023-03-27T05:24:00.563Z,84.06
2023-03-27T05:26:26.911Z,83.72
2023-03-27T05:28:53.236Z,84.77
2023-03-27T05:31:19.621Z,85.67
2023-03-27T05:33:46.227Z,85.67
2023-03-27T05:36:12.808Z,84.86
2023-03-27T05:38:39.148Z,85.27
2023-03-27T05:41:05.513Z,84.72
2023-03-27T05:43:31.842Z,85.51
2023-03-27T05:46:01.521Z,84.29
2023-03-27T05:48:27.918Z,85.23
2023-03-27T05:50:55.256Z,85.62
2023-03-27T05:53:29.049Z,84.29
2023-03-27T05:56:02.883Z,85.65
2023-03-27T05:58:29.963Z,85.36
2023-03-27T06:00:56.988Z,84.68
2023-03-27T06:03:23.577Z,85.96
2023-03-27T06:05:50.240Z,85.18
2023-03-27T06:08:17.324Z,85.48
2023-03-27T06:10:43.904Z,84.78
2023-03-27T06:13:12.220Z,86.15
2023-03-27T06:15:39.092Z,86.17
2023-03-27T06:18:05.597Z,84.97
2023-03-27T06:20:31.983Z,84.45
2023-03-27T06:22:58.546Z,85.33
2023-03-27T06:25:24.875Z,86.12
2023-03-27T06:27:51.728Z,86.45
2023-03-27T06:30:18.072Z,85.41
2023-03-27T06:32:44.564Z,84.31
2023-03-27T06:35:12.108Z,84.00
2023-03-27T06:37:38.437Z,83.98
2023-03-27T06:40:05.668Z,83.77
2023-03-27T06:42:32.013Z,84.03
2023-03-27T06:44:58.345Z,83.89
2023-03-27T06:47:25.135Z,83.78
2023-03-27T06:49:52.032Z,83.81
2023-03-27T06:52:18.350Z,83.84
2023-03-27T06:54:44.690Z,84.02
2023-03-27T06:57:11.738Z,83.86
2023-03-27T06:59:38.198Z,83.38
2023-03-27T07:02:04.578Z,83.33
2023-03-27T07:04:30.931Z,83.50
2023-03-27T07:06:57.268Z,83.48
2023-03-27T07:09:23.595Z,83.18
2023-03-27T07:11:49.935Z,83.18
2023-03-27T07:14:16.276Z,83.22
2023-03-27T07:16:42.645Z,83.48
2023-03-27T07:19:08.984Z,83.00
2023-03-27T07:21:35.347Z,83.24
2023-03-27T07:24:01.716Z,83.08
2023-03-27T07:26:29.355Z,82.91
2023-03-27T07:28:55.696Z,82.98
2023-03-27T07:31:36.546Z,82.73
2023-03-27T07:34:08.441Z,82.87
2023-03-27T07:36:34.867Z,83.01
2023-03-27T07:39:01.211Z,82.86
2023-03-27T07:41:27.549Z,82.66
2023-03-27T07:43:56.224Z,82.57
2023-03-27T07:46:22.619Z,82.92
2023-03-27T07:48:50.238Z,82.51
2023-03-27T07:51:16.860Z,82.44
2023-03-27T07:53:43.195Z,81.81
2023-03-27T07:56:09.995Z,82.51
2023-03-27T07:58:36.349Z,82.25
2023-03-27T08:01:02.895Z,82.18
2023-03-27T08:03:29.365Z,82.22
2023-03-27T08:05:55.897Z,81.98
2023-03-27T08:08:22.644Z,82.07
2023-03-27T08:10:48.984Z,81.90
2023-03-27T08:13:16.615Z,81.77
2023-03-27T08:15:42.943Z,82.33
2023-03-27T08:18:09.313Z,81.88
2023-03-27T08:20:35.680Z,82.37
2023-03-27T08:23:02.003Z,82.15
2023-03-27T08:25:28.341Z,82.25
2023-03-27T08:27:54.670Z,82.35
2023-03-27T08:30:23.241Z,82.29
2023-03-27T08:32:49.636Z,81.86
2023-03-27T08:35:16.087Z,82.04
2023-03-27T08:37:42.447Z,82.77
2023-03-27T08:40:08.778Z,82.09
2023-03-27T08:42:35.124Z,81.87
2023-03-27T08:45:01.471Z,82.11
2023-03-27T08:47:27.831Z,82.19
2023-03-27T08:49:54.187Z,82.33
2023-03-27T08:52:20.516Z,82.15
2023-03-27T08:54:46.845Z,82.67
2023-03-27T08:57:13.223Z,82.25
2023-03-27T08:59:39.563Z,82.43
2023-03-27T09:02:06.681Z,82.26
2023-03-27T09:04:33.075Z,82.05
2023-03-27T09:07:00.644Z,82.18
2023-03-27T09:09:26.980Z,81.88
2023-03-27T09:11:53.490Z,81.77
2023-03-27T09:14:19.846Z,82.46
2023-03-27T09:16:46.866Z,81.85
2023-03-27T09:19:13.233Z,82.05
2023-03-27T09:21:39.562Z,82.21
2023-03-27T09:24:05.892Z,81.55
2023-03-27T09:26:32.221Z,81.71
2023-03-27T09:28:58.561Z,81.86
2023-03-27T09:31:24.987Z,82.15
2023-03-27T09:33:51.591Z,82.14
2023-03-27T09:36:17.910Z,81.75
2023-03-27T09:38:44.237Z,81.46
2023-03-27T09:41:10.560Z,81.71
2023-03-27T09:43:36.887Z,82.07
2023-03-27T09:46:03.433Z,81.46
2023-03-27T09:48:29.772Z,81.77
2023-03-27T09:50:56.213Z,81.75
2023-03-27T09:53:22.650Z,81.38
2023-03-27T09:55:48.985Z,81.71
2023-03-27T09:58:15.315Z,81.99
2023-03-27T10:00:41.688Z,81.88
2023-03-27T10:03:08.172Z,82.29
2023-03-27T10:05:34.653Z,82.05
2023-03-27T10:08:00.990Z,81.77
2023-03-27T10:10:27.318Z,81.68
2023-03-27T10:12:53.668Z,81.99
2023-03-27T10:15:20.012Z,81.99
2023-03-27T10:17:46.431Z,82.14
2023-03-27T10:20:12.778Z,81.74
2023-03-27T10:22:39.110Z,81.65
2023-03-27T10:25:05.668Z,81.25
2023-03-27T10:27:31.995Z,81.34
2023-03-27T10:29:58.537Z,81.16
2023-03-27T10:32:24.913Z,81.30
2023-03-27T10:34:51.280Z,80.97
2023-03-27T10:37:17.613Z,81.72
2023-03-27T10:39:43.955Z,81.45
2023-03-27T10:42:10.283Z,81.86
2023-03-27T10:44:36.625Z,81.35
2023-03-27T10:47:03.006Z,81.42
2023-03-27T10:49:29.379Z,82.27
2023-03-27T10:51:55.734Z,81.98
2023-03-27T10:54:22.109Z,81.06
2023-03-27T10:56:48.516Z,81.43
2023-03-27T10:59:18.922Z,81.39
2023-03-27T11:01:49.727Z,81.77
2023-03-27T11:04:16.117Z,81.00
2023-03-27T11:06:42.496Z,81.27
2023-03-27T11:09:08.827Z,80.93
2023-03-27T11:11:35.200Z,81.39
2023-03-27T11:14:01.532Z,81.26
2023-03-27T11:16:27.890Z,81.30
2023-03-27T11:18:54.240Z,82.08
2023-03-27T11:21:20.590Z,82.42
2023-03-27T11:23:46.936Z,81.97
2023-03-27T11:26:13.288Z,81.80
2023-03-27T11:28:39.688Z,81.65
2023-03-27T11:31:12.200Z,81.25
2023-03-27T11:33:39.522Z,81.84
2023-03-27T11:36:06.122Z,81.53
2023-03-27T11:38:32.507Z,81.70
2023-03-27T11:40:59.121Z,81.58
2023-03-27T11:43:25.734Z,81.91
2023-03-27T11:45:52.163Z,82.20
2023-03-27T11:48:18.566Z,82.01
2023-03-27T11:50:45.005Z,82.00
2023-03-27T11:53:11.354Z,81.78
2023-03-27T11:55:37.719Z,81.51
2023-03-27T11:58:04.295Z,83.01
2023-03-27T12:00:30.662Z,82.47
2023-03-27T12:02:57.351Z,82.11
2023-03-27T12:05:23.745Z,82.49
2023-03-27T12:07:50.307Z,82.40
2023-03-27T12:10:16.641Z,82.32
2023-03-27T12:12:42.981Z,83.21
2023-03-27T12:15:09.302Z,82.51
2023-03-27T12:17:35.692Z,82.38
2023-03-27T12:20:02.269Z,83.08
2023-03-27T12:22:28.695Z,82.65
2023-03-27T12:24:59.660Z,81.71
2023-03-27T12:27:26.564Z,81.40
2023-03-27T12:29:52.895Z,81.34
2023-03-27T12:32:19.239Z,80.98
2023-03-27T12:34:45.554Z,80.98
2023-03-27T12:37:11.881Z,81.47
2023-03-27T12:39:38.211Z,80.96
2023-03-27T12:42:04.540Z,82.20
2023-03-27T12:44:30.879Z,81.00
2023-03-27T12:46:57.239Z,80.94
2023-03-27T12:49:27.456Z,81.87
2023-03-27T12:51:57.989Z,81.59
2023-03-27T12:54:24.336Z,82.34
2023-03-27T12:56:50.965Z,82.31
2023-03-27T12:59:17.360Z,81.58
2023-03-27T13:01:51.750Z,81.83
2023-03-27T13:04:19.335Z,82.42
2023-03-27T13:06:45.672Z,81.81
2023-03-27T13:09:12.001Z,81.87
2023-03-27T13:11:38.350Z,80.76
2023-03-27T13:14:04.668Z,83.33
2023-03-27T13:16:31.088Z,81.07
2023-03-27T13:18:57.470Z,81.27
2023-03-27T13:21:23.811Z,80.44
2023-03-27T13:23:50.145Z,81.46
2023-03-27T13:26:16.481Z,81.78
2023-03-27T13:28:42.809Z,81.53
2023-03-27T13:31:09.546Z,80.78
2023-03-27T13:33:35.914Z,81.78
2023-03-27T13:36:02.305Z,81.03
2023-03-27T13:38:28.649Z,81.32
2023-03-27T13:40:54.980Z,81.02
2023-03-27T13:43:21.305Z,81.48
2023-03-27T13:45:47.635Z,81.40
2023-03-27T13:48:13.964Z,79.61
2023-03-27T13:50:40.304Z,78.40
2023-03-27T13:53:06.858Z,80.95
2023-03-27T13:55:33.182Z,77.94
2023-03-27T13:57:59.502Z,78.25
2023-03-27T14:00:25.845Z,77.29
2023-03-27T14:02:52.247Z,79.28
2023-03-27T14:05:18.638Z,80.18
2023-03-27T14:07:44.968Z,78.30
2023-03-27T14:10:11.514Z,78.32
2023-03-27T14:12:37.849Z,79.11
2023-03-27T14:15:04.176Z,77.03
2023-03-27T14:17:30.509Z,75.34
2023-03-27T14:19:56.838Z,75.26
2023-03-27T14:22:23.216Z,75.21
2023-03-27T14:24:49.575Z,74.97
2023-03-27T14:27:15.939Z,74.77
2023-03-27T14:29:42.307Z,75.02
2023-03-27T14:32:08.655Z,75.24
2023-03-27T14:34:47.175Z,75.68
2023-03-27T14:37:19.481Z,75.97
2023-03-27T14:39:45.800Z,75.92
2023-03-27T14:42:12.138Z,75.90
2023-03-27T14:44:38.466Z,76.10
2023-03-27T14:47:04.853Z,75.74
2023-03-27T14:49:31.184Z,75.60
2023-03-27T14:51:57.524Z,76.33
2023-03-27T14:54:23.855Z,76.24
2023-03-27T14:56:50.207Z,76.09
2023-03-27T14:59:16.560Z,76.14
2023-03-27T15:01:43.000Z,76.35
2023-03-27T15:04:09.538Z,77.01
2023-03-27T15:06:35.892Z,76.96
2023-03-27T15:09:02.220Z,77.39
2023-03-27T15:11:28.552Z,77.43
2023-03-27T15:13:54.903Z,77.83
2023-03-27T15:16:21.213Z,78.57
2023-03-27T15:18:47.567Z,78.45
2023-03-27T15:21:13.916Z,78.71
2023-03-27T15:23:40.504Z,80.28
2023-03-27T15:26:06.903Z,78.35
2023-03-27T15:28:33.244Z,79.22
2023-03-27T15:30:59.609Z,81.83
2023-03-27T15:33:25.984Z,78.59
2023-03-27T15:35:52.371Z,80.76
2023-03-27T15:38:18.757Z,79.66
2023-03-27T15:40:45.319Z,79.84
2023-03-27T15:43:11.692Z,79.75
2023-03-27T15:45:38.025Z,81.69
2023-03-27T15:48:04.398Z,82.52
2023-03-27T15:50:30.738Z,84.09
2023-03-27T15:52:57.073Z,79.23
2023-03-27T15:55:23.400Z,82.96
2023-03-27T15:57:49.732Z,80.99
2023-03-27T16:00:16.060Z,82.19
2023-03-27T16:02:42.716Z,81.27
2023-03-27T16:05:09.183Z,81.59
2023-03-27T16:07:35.521Z,83.38
2023-03-27T16:10:01.871Z,82.80
2023-03-27T16:12:28.438Z,83.34
2023-03-27T16:14:54.776Z,81.91
2023-03-27T16:17:21.173Z,83.51
2023-03-27T16:19:47.656Z,84.41
2023-03-27T16:22:13.998Z,80.96
2023-03-27T16:24:40.325Z,84.50
2023-03-27T16:27:06.656Z,84.99
2023-03-27T16:29:33.274Z,84.16
2023-03-27T16:31:59.634Z,83.99
2023-03-27T16:34:26.012Z,81.20
2023-03-27T16:36:52.401Z,85.12
2023-03-27T16:39:18.777Z,85.19
2023-03-27T16:41:45.135Z,85.02
2023-03-27T16:44:11.473Z,84.47
2023-03-27T16:46:38.040Z,84.45
2023-03-27T16:49:04.373Z,85.35
2023-03-27T16:51:30.763Z,85.20
2023-03-27T16:53:57.099Z,85.17
2023-03-27T16:56:23.428Z,84.98
2023-03-27T16:58:49.793Z,85.15
2023-03-27T17:01:16.173Z,85.02
2023-03-27T17:03:42.775Z,84.99
2023-03-27T17:06:09.103Z,85.17
2023-03-27T17:08:35.433Z,85.06
2023-03-27T17:11:01.763Z,85.03
2023-03-27T17:13:28.097Z,85.04
2023-03-27T17:15:54.449Z,85.11
2023-03-27T17:18:20.878Z,85.08
2023-03-27T17:20:47.871Z,84.93
2023-03-27T17:23:14.211Z,85.02
2023-03-27T17:25:40.537Z,84.84
2023-03-27T17:28:06.871Z,84.81
2023-03-27T17:30:39.706Z,84.67
2023-03-27T17:33:09.397Z,84.65
2023-03-27T17:35:35.821Z,84.36
2023-03-27T17:38:04.518Z,83.91
2023-03-27T17:40:30.866Z,83.81
2023-03-27T17:42:57.404Z,83.32
2023-03-27T17:45:23.726Z,83.61
2023-03-27T17:47:50.086Z,83.56
2023-03-27T17:50:16.505Z,83.67
2023-03-27T17:52:42.889Z,83.50
2023-03-27T17:55:09.434Z,83.46
2023-03-27T17:57:35.800Z,82.94
2023-03-27T18:02:49.686Z,82.85
2023-03-27T18:05:16.084Z,82.89
2023-03-27T18:07:42.430Z,82.36
2023-03-27T18:10:09.019Z,82.63
2023-03-27T18:12:35.353Z,82.36
2023-03-27T18:15:01.694Z,82.69
2023-03-27T18:17:28.358Z,82.30
2023-03-27T18:19:54.708Z,82.18
2023-03-27T18:22:21.039Z,82.15
2023-03-27T18:24:47.918Z,82.13
2023-03-27T18:27:14.256Z,82.35
2023-03-27T18:29:40.588Z,82.20
2023-03-27T18:32:07.016Z,81.89
2023-03-27T18:34:33.624Z,81.90
2023-03-27T18:37:00.315Z,81.86
2023-03-27T18:39:26.663Z,81.65
2023-03-27T18:41:53.009Z,81.93
2023-03-27T18:44:19.350Z,81.61
2023-03-27T18:46:45.933Z,81.92
2023-03-27T18:49:23.502Z,81.79
2023-03-27T18:51:51.653Z,81.75
2023-03-27T18:54:17.998Z,81.77
2023-03-27T18:56:45.297Z,81.60
2023-03-27T18:59:11.640Z,82.20
2023-03-27T19:01:38.123Z,82.16
2023-03-27T19:04:04.554Z,82.06
2023-03-27T19:06:30.906Z,81.90
2023-03-27T19:08:57.239Z,81.98
2023-03-27T19:11:23.575Z,82.41
2023-03-27T19:13:49.923Z,82.34
2023-03-27T19:16:16.260Z,82.42
2023-03-27T19:18:42.602Z,82.92
2023-03-27T19:21:08.951Z,82.78
2023-03-27T19:23:35.523Z,82.83
2023-03-27T19:26:01.860Z,82.61
2023-03-27T19:28:28.191Z,82.60
2023-03-27T19:30:54.571Z,82.45
2023-03-27T19:33:20.938Z,82.69
2023-03-27T19:35:47.280Z,82.70
2023-03-27T19:38:13.638Z,83.13
2023-03-27T19:40:39.968Z,83.05
2023-03-27T19:43:06.301Z,82.53
2023-03-27T19:45:32.645Z,82.61
2023-03-27T19:47:59.023Z,82.40
2023-03-27T19:50:27.482Z,82.72
2023-03-27T19:53:05.271Z,82.75
2023-03-27T19:55:34.323Z,84.70
2023-03-27T19:58:00.664Z,82.59
2023-03-27T20:00:28.105Z,83.55
2023-03-27T20:02:55.803Z,82.68
2023-03-27T20:05:22.222Z,83.33
2023-03-27T20:07:48.748Z,82.64
2023-03-27T20:13:02.329Z,82.40
2023-03-27T20:15:28.669Z,82.67
2023-03-27T20:17:55.308Z,82.72
2023-03-27T20:20:21.708Z,83.29
2023-03-27T20:22:56.954Z,82.91
2023-03-27T20:25:24.602Z,82.15
2023-03-27T20:27:50.925Z,81.26
2023-03-27T20:30:17.274Z,82.41
2023-03-27T20:32:43.648Z,83.80
2023-03-27T20:35:20.696Z,82.83
2023-03-27T20:37:49.740Z,82.67
2023-03-27T20:40:16.316Z,83.76
2023-03-27T20:42:42.647Z,83.15
2023-03-27T20:45:09.082Z,83.91
2023-03-27T20:47:35.457Z,84.86
2023-03-27T20:50:01.792Z,84.34
2023-03-27T20:52:28.114Z,84.47
2023-03-27T20:54:54.660Z,83.74
2023-03-27T20:57:21.107Z,84.07
2023-03-27T20:59:47.800Z,82.68
2023-03-27T21:02:14.162Z,85.06
2023-03-27T21:04:40.551Z,84.70
2023-03-27T21:07:06.897Z,85.28
2023-03-27T21:09:33.229Z,85.26
2023-03-27T21:11:59.557Z,85.33
2023-03-27T21:14:25.904Z,85.53
2023-03-27T21:16:52.314Z,85.56
2023-03-27T21:19:18.668Z,85.47
2023-03-27T21:21:45.015Z,84.71
2023-03-27T21:24:11.378Z,85.75
2023-03-27T21:26:37.753Z,85.61
2023-03-27T21:29:04.089Z,85.35
2023-03-27T21:31:30.551Z,85.29
2023-03-27T21:33:56.890Z,85.42
2023-03-27T21:36:23.336Z,84.30
2023-03-27T21:38:49.754Z,84.47
2023-03-27T21:41:16.148Z,85.54
2023-03-27T21:43:42.550Z,85.19
2023-03-27T21:46:09.015Z,85.76
2023-03-27T21:48:35.409Z,85.25
2023-03-27T21:51:01.972Z,84.40
2023-03-27T21:53:28.307Z,85.35
2023-03-27T21:55:54.632Z,84.07
2023-03-27T21:58:20.958Z,83.31
2023-03-27T22:00:47.527Z,84.63
2023-03-27T22:03:13.871Z,85.67
2023-03-27T22:05:40.200Z,85.12
2023-03-27T22:08:06.746Z,85.72
2023-03-27T22:10:33.107Z,85.84
2023-03-27T22:13:00.161Z,85.55
2023-03-27T22:15:26.530Z,84.68
2023-03-27T22:17:53.169Z,85.35
2023-03-27T22:20:19.557Z,85.92
2023-03-27T22:22:45.889Z,85.35
2023-03-27T22:25:12.232Z,85.21
2023-03-27T22:27:38.561Z,84.80
2023-03-27T22:30:04.895Z,83.67
2023-03-27T22:32:31.301Z,83.37
2023-03-27T22:34:57.743Z,84.87
2023-03-27T22:37:24.078Z,85.27
2023-03-27T22:39:50.413Z,85.62
2023-03-27T22:42:16.747Z,85.19
2023-03-27T22:44:43.320Z,85.41
2023-03-27T22:47:09.667Z,85.35
2023-03-27T22:49:36.176Z,84.17
2023-03-27T22:52:02.522Z,83.88
2023-03-27T22:54:28.874Z,84.35
2023-03-27T22:56:55.378Z,85.32
2023-03-27T22:59:21.774Z,84.65
2023-03-27T23:01:48.185Z,83.19
2023-03-27T23:04:14.766Z,85.02
2023-03-27T23:06:41.098Z,85.49
2023-03-27T23:09:07.435Z,83.81
2023-03-27T23:11:33.815Z,83.16
2023-03-27T23:14:00.181Z,83.78
2023-03-27T23:16:26.557Z,84.17
2023-03-27T23:18:52.906Z,84.31
2023-03-27T23:21:19.258Z,84.88
2023-03-27T23:23:45.652Z,82.36
2023-03-27T23:26:12.029Z,83.04
2023-03-27T23:28:38.362Z,83.16
2023-03-27T23:31:05.128Z,83.99
2023-03-27T23:33:31.471Z,84.24
2023-03-27T23:35:58.205Z,83.50
2023-03-27T23:38:24.658Z,84.48
2023-03-27T23:40:50.988Z,84.98
2023-03-27T23:43:17.337Z,83.76
2023-03-27T23:45:43.683Z,83.58
2023-03-27T23:48:10.034Z,83.92
2023-03-27T23:50:36.364Z,83.91
2023-03-27T23:53:02.705Z,84.17
2023-03-27T23:55:29.036Z,84.08
2023-03-27T23:57:55.364Z,84.51
